sensor_id;sensor_type;location;lat;lon;timestamp;P1;durP1;ratioP1;P2;durP2;ratioP2
4738;SDS011;2383;48.632;10.156;2023-04-23T00:02:12;6.10;;;3.15;;
4738;SDS011;2383;48.632;10.156;2023-04-23T00:06:16;4.40;;;3.17;;
4738;SDS011;2383;48.632;10.156;2023-04-23T00:10:20;5.53;;;3.75;;
4738;SDS011;2383;48.632;10.156;2023-04-23T00:14:23;5.47;;;3.45;;
4738;SDS011;2383;48.632;10.156;2023-04-23T00:18:25;4.90;;;3.90;;
4738;SDS011;2383;48.632;10.156;2023-04-23T00:22:27;5.47;;;3.67;;
4738;SDS011;2383;48.632;10.156;2023-04-23T00:26:29;7.05;;;4.30;;
4738;SDS011;2383;48.632;10.156;2023-04-23T00:30:31;5.45;;;3.65;;
4738;SDS011;2383;48.632;10.156;2023-04-23T00:34:34;5.75;;;3.60;;
4738;SDS011;2383;48.632;10.156;2023-04-23T00:38:36;5.13;;;3.88;;
4738;SDS011;2383;48.632;10.156;2023-04-23T00:42:38;5.63;;;4.03;;
4738;SDS011;2383;48.632;10.156;2023-04-23T00:46:40;5.40;;;3.97;;
4738;SDS011;2383;48.632;10.156;2023-04-23T00:50:45;7.03;;;4.03;;
4738;SDS011;2383;48.632;10.156;2023-04-23T00:54:47;5.88;;;4.20;;
4738;SDS011;2383;48.632;10.156;2023-04-23T00:58:50;6.05;;;3.85;;
4738;SDS011;2383;48.632;10.156;2023-04-23T01:02:53;5.72;;;3.67;;
4738;SDS011;2383;48.632;10.156;2023-04-23T01:06:56;7.30;;;5.15;;
4738;SDS011;2383;48.632;10.156;2023-04-23T01:10:59;9.32;;;4.72;;
4738;SDS011;2383;48.632;10.156;2023-04-23T01:15:03;6.97;;;4.38;;
4738;SDS011;2383;48.632;10.156;2023-04-23T01:19:07;6.95;;;3.80;;
4738;SDS011;2383;48.632;10.156;2023-04-23T01:23:10;5.85;;;4.53;;
4738;SDS011;2383;48.632;10.156;2023-04-23T01:27:13;6.95;;;5.28;;
4738;SDS011;2383;48.632;10.156;2023-04-23T01:31:16;12.55;;;6.65;;
4738;SDS011;2383;48.632;10.156;2023-04-23T01:35:19;9.07;;;7.68;;
4738;SDS011;2383;48.632;10.156;2023-04-23T01:39:21;7.50;;;5.55;;
4738;SDS011;2383;48.632;10.156;2023-04-23T01:43:23;8.45;;;3.30;;
4738;SDS011;2383;48.632;10.156;2023-04-23T01:47:25;4.07;;;3.40;;
4738;SDS011;2383;48.632;10.156;2023-04-23T01:51:28;3.83;;;2.70;;
4738;SDS011;2383;48.632;10.156;2023-04-23T01:55:31;5.80;;;3.35;;
4738;SDS011;2383;48.632;10.156;2023-04-23T01:59:39;4.30;;;2.80;;
4738;SDS011;2383;48.632;10.156;2023-04-23T02:03:41;6.63;;;2.95;;
4738;SDS011;2383;48.632;10.156;2023-04-23T02:07:46;4.63;;;2.70;;
4738;SDS011;2383;48.632;10.156;2023-04-23T02:11:49;3.03;;;2.35;;
4738;SDS011;2383;48.632;10.156;2023-04-23T02:15:51;8.77;;;3.40;;
4738;SDS011;2383;48.632;10.156;2023-04-23T02:19:53;6.13;;;2.67;;
4738;SDS011;2383;48.632;10.156;2023-04-23T02:23:58;4.43;;;2.80;;
4738;SDS011;2383;48.632;10.156;2023-04-23T02:28:00;5.28;;;2.60;;
4738;SDS011;2383;48.632;10.156;2023-04-23T02:32:06;4.40;;;2.88;;
4738;SDS011;2383;48.632;10.156;2023-04-23T02:36:09;4.30;;;2.90;;
4738;SDS011;2383;48.632;10.156;2023-04-23T02:40:12;6.05;;;2.92;;
4738;SDS011;2383;48.632;10.156;2023-04-23T02:44:13;6.28;;;2.88;;
4738;SDS011;2383;48.632;10.156;2023-04-23T02:48:16;4.72;;;2.55;;
4738;SDS011;2383;48.632;10.156;2023-04-23T02:52:18;6.45;;;2.72;;
4738;SDS011;2383;48.632;10.156;2023-04-23T02:56:21;3.47;;;2.85;;
4738;SDS011;2383;48.632;10.156;2023-04-23T03:00:23;5.60;;;2.38;;
4738;SDS011;2383;48.632;10.156;2023-04-23T03:04:26;9.23;;;3.08;;
4738;SDS011;2383;48.632;10.156;2023-04-23T03:08:29;3.28;;;2.60;;
4738;SDS011;2383;48.632;10.156;2023-04-23T03:12:31;6.47;;;2.60;;
4738;SDS011;2383;48.632;10.156;2023-04-23T03:16:34;6.30;;;2.70;;
4738;SDS011;2383;48.632;10.156;2023-04-23T03:20:36;4.53;;;2.50;;
4738;SDS011;2383;48.632;10.156;2023-04-23T03:24:38;3.80;;;2.15;;
4738;SDS011;2383;48.632;10.156;2023-04-23T03:28:41;4.07;;;2.63;;
4738;SDS011;2383;48.632;10.156;2023-04-23T03:32:43;3.97;;;2.50;;
4738;SDS011;2383;48.632;10.156;2023-04-23T03:36:46;3.80;;;2.65;;
4738;SDS011;2383;48.632;10.156;2023-04-23T03:40:49;6.80;;;2.90;;
4738;SDS011;2383;48.632;10.156;2023-04-23T03:44:51;5.60;;;3.40;;
4738;SDS011;2383;48.632;10.156;2023-04-23T03:48:54;4.22;;;2.92;;
4738;SDS011;2383;48.632;10.156;2023-04-23T03:53:00;6.65;;;3.28;;
4738;SDS011;2383;48.632;10.156;2023-04-23T03:57:22;6.25;;;3.05;;
4738;SDS011;2383;48.632;10.156;2023-04-23T04:01:41;5.68;;;3.20;;
4738;SDS011;2383;48.632;10.156;2023-04-23T04:05:43;7.18;;;3.30;;
4738;SDS011;2383;48.632;10.156;2023-04-23T04:09:46;5.13;;;3.80;;
4738;SDS011;2383;48.632;10.156;2023-04-23T04:13:49;7.70;;;3.50;;
4738;SDS011;2383;48.632;10.156;2023-04-23T04:17:51;6.10;;;3.85;;
4738;SDS011;2383;48.632;10.156;2023-04-23T04:21:53;5.18;;;3.20;;
4738;SDS011;2383;48.632;10.156;2023-04-23T04:25:55;7.53;;;3.67;;
4738;SDS011;2383;48.632;10.156;2023-04-23T04:29:58;6.95;;;3.80;;
4738;SDS011;2383;48.632;10.156;2023-04-23T04:34:02;7.18;;;3.85;;
4738;SDS011;2383;48.632;10.156;2023-04-23T04:38:04;5.50;;;3.80;;
4738;SDS011;2383;48.632;10.156;2023-04-23T04:42:06;6.07;;;3.70;;
4738;SDS011;2383;48.632;10.156;2023-04-23T04:46:08;5.93;;;3.90;;
4738;SDS011;2383;48.632;10.156;2023-04-23T04:50:12;9.85;;;4.07;;
4738;SDS011;2383;48.632;10.156;2023-04-23T04:54:14;6.65;;;4.50;;
4738;SDS011;2383;48.632;10.156;2023-04-23T04:58:16;6.18;;;4.20;;
4738;SDS011;2383;48.632;10.156;2023-04-23T05:02:18;5.80;;;3.95;;
4738;SDS011;2383;48.632;10.156;2023-04-23T05:06:22;6.43;;;4.13;;
4738;SDS011;2383;48.632;10.156;2023-04-23T05:10:24;6.75;;;4.40;;
4738;SDS011;2383;48.632;10.156;2023-04-23T05:14:27;5.45;;;4.05;;
4738;SDS011;2383;48.632;10.156;2023-04-23T05:18:29;7.18;;;4.35;;
4738;SDS011;2383;48.632;10.156;2023-04-23T05:22:31;8.30;;;4.35;;
4738;SDS011;2383;48.632;10.156;2023-04-23T05:26:33;6.07;;;4.50;;
4738;SDS011;2383;48.632;10.156;2023-04-23T05:30:35;6.85;;;4.28;;
4738;SDS011;2383;48.632;10.156;2023-04-23T05:34:38;8.50;;;4.65;;
4738;SDS011;2383;48.632;10.156;2023-04-23T05:38:40;8.23;;;4.93;;
4738;SDS011;2383;48.632;10.156;2023-04-23T05:42:43;5.88;;;4.60;;
4738;SDS011;2383;48.632;10.156;2023-04-23T05:46:45;5.97;;;4.60;;
4738;SDS011;2383;48.632;10.156;2023-04-23T05:50:47;5.00;;;3.90;;
4738;SDS011;2383;48.632;10.156;2023-04-23T05:54:50;11.15;;;5.03;;
4738;SDS011;2383;48.632;10.156;2023-04-23T05:58:52;7.10;;;5.40;;
4738;SDS011;2383;48.632;10.156;2023-04-23T06:02:54;6.70;;;4.22;;
4738;SDS011;2383;48.632;10.156;2023-04-23T06:06:57;7.95;;;4.43;;
4738;SDS011;2383;48.632;10.156;2023-04-23T06:10:59;6.82;;;4.30;;
4738;SDS011;2383;48.632;10.156;2023-04-23T06:15:02;7.30;;;4.75;;
4738;SDS011;2383;48.632;10.156;2023-04-23T06:19:05;9.15;;;4.50;;
4738;SDS011;2383;48.632;10.156;2023-04-23T06:23:07;7.53;;;4.82;;
4738;SDS011;2383;48.632;10.156;2023-04-23T06:27:09;7.35;;;4.90;;
4738;SDS011;2383;48.632;10.156;2023-04-23T06:31:16;5.80;;;4.97;;
4738;SDS011;2383;48.632;10.156;2023-04-23T06:35:19;6.78;;;5.13;;
4738;SDS011;2383;48.632;10.156;2023-04-23T06:39:22;8.50;;;6.25;;
4738;SDS011;2383;48.632;10.156;2023-04-23T06:43:24;6.07;;;4.72;;
4738;SDS011;2383;48.632;10.156;2023-04-23T06:47:48;5.93;;;4.53;;
4738;SDS011;2383;48.632;10.156;2023-04-23T06:51:50;9.70;;;6.07;;
4738;SDS011;2383;48.632;10.156;2023-04-23T06:55:52;9.10;;;5.38;;
4738;SDS011;2383;48.632;10.156;2023-04-23T06:59:54;7.97;;;5.68;;
4738;SDS011;2383;48.632;10.156;2023-04-23T07:04:01;8.23;;;5.90;;
4738;SDS011;2383;48.632;10.156;2023-04-23T07:08:03;6.55;;;5.63;;
4738;SDS011;2383;48.632;10.156;2023-04-23T07:12:06;7.88;;;5.97;;
4738;SDS011;2383;48.632;10.156;2023-04-23T07:16:08;10.60;;;6.00;;
4738;SDS011;2383;48.632;10.156;2023-04-23T07:20:10;7.95;;;5.82;;
4738;SDS011;2383;48.632;10.156;2023-04-23T07:24:12;7.53;;;5.75;;
4738;SDS011;2383;48.632;10.156;2023-04-23T07:28:14;7.72;;;6.43;;
4738;SDS011;2383;48.632;10.156;2023-04-23T07:32:16;9.93;;;6.50;;
4738;SDS011;2383;48.632;10.156;2023-04-23T07:36:19;6.93;;;6.07;;
4738;SDS011;2383;48.632;10.156;2023-04-23T07:40:21;10.23;;;6.70;;
4738;SDS011;2383;48.632;10.156;2023-04-23T07:44:23;8.52;;;7.28;;
4738;SDS011;2383;48.632;10.156;2023-04-23T07:48:26;8.35;;;7.00;;
4738;SDS011;2383;48.632;10.156;2023-04-23T07:52:28;11.07;;;6.65;;
4738;SDS011;2383;48.632;10.156;2023-04-23T07:56:30;9.82;;;7.78;;
4738;SDS011;2383;48.632;10.156;2023-04-23T08:00:33;9.55;;;7.43;;
4738;SDS011;2383;48.632;10.156;2023-04-23T08:04:36;9.32;;;6.95;;
4738;SDS011;2383;48.632;10.156;2023-04-23T08:08:38;7.70;;;6.82;;
4738;SDS011;2383;48.632;10.156;2023-04-23T08:12:41;8.23;;;6.95;;
4738;SDS011;2383;48.632;10.156;2023-04-23T08:16:43;8.60;;;7.18;;
4738;SDS011;2383;48.632;10.156;2023-04-23T08:20:45;7.35;;;6.63;;
4738;SDS011;2383;48.632;10.156;2023-04-23T08:24:48;8.60;;;6.60;;
4738;SDS011;2383;48.632;10.156;2023-04-23T08:28:50;4.82;;;4.35;;
4738;SDS011;2383;48.632;10.156;2023-04-23T08:32:52;5.13;;;4.63;;
4738;SDS011;2383;48.632;10.156;2023-04-23T08:36:54;4.63;;;3.97;;
4738;SDS011;2383;48.632;10.156;2023-04-23T08:40:57;4.28;;;3.70;;
4738;SDS011;2383;48.632;10.156;2023-04-23T08:44:59;3.83;;;3.45;;
4738;SDS011;2383;48.632;10.156;2023-04-23T08:49:03;4.20;;;3.10;;
4738;SDS011;2383;48.632;10.156;2023-04-23T08:53:09;5.03;;;3.97;;
4738;SDS011;2383;48.632;10.156;2023-04-23T08:57:12;6.30;;;4.22;;
4738;SDS011;2383;48.632;10.156;2023-04-23T09:01:16;8.05;;;5.30;;
4738;SDS011;2383;48.632;10.156;2023-04-23T09:05:19;3.45;;;3.10;;
4738;SDS011;2383;48.632;10.156;2023-04-23T09:09:22;4.28;;;3.10;;
4738;SDS011;2383;48.632;10.156;2023-04-23T09:13:24;5.47;;;3.40;;
4738;SDS011;2383;48.632;10.156;2023-04-23T09:17:27;3.53;;;2.75;;
4738;SDS011;2383;48.632;10.156;2023-04-23T09:21:31;5.00;;;3.63;;
4738;SDS011;2383;48.632;10.156;2023-04-23T09:25:33;4.93;;;3.20;;
4738;SDS011;2383;48.632;10.156;2023-04-23T09:29:37;3.13;;;2.45;;
4738;SDS011;2383;48.632;10.156;2023-04-23T09:33:39;4.20;;;2.38;;
4738;SDS011;2383;48.632;10.156;2023-04-23T09:37:42;2.83;;;2.33;;
4738;SDS011;2383;48.632;10.156;2023-04-23T09:41:51;2.30;;;2.10;;
4738;SDS011;2383;48.632;10.156;2023-04-23T09:45:54;3.03;;;2.50;;
4738;SDS011;2383;48.632;10.156;2023-04-23T09:49:56;3.63;;;2.50;;
4738;SDS011;2383;48.632;10.156;2023-04-23T09:54:00;3.15;;;2.63;;
4738;SDS011;2383;48.632;10.156;2023-04-23T09:58:04;3.55;;;2.28;;
4738;SDS011;2383;48.632;10.156;2023-04-23T10:02:11;6.90;;;2.72;;
4738;SDS011;2383;48.632;10.156;2023-04-23T10:06:13;5.22;;;2.38;;
4738;SDS011;2383;48.632;10.156;2023-04-23T10:10:36;3.45;;;2.05;;
4738;SDS011;2383;48.632;10.156;2023-04-23T10:14:57;3.22;;;1.88;;
4738;SDS011;2383;48.632;10.156;2023-04-23T10:19:00;2.78;;;2.00;;
4738;SDS011;2383;48.632;10.156;2023-04-23T10:23:03;2.67;;;2.47;;
4738;SDS011;2383;48.632;10.156;2023-04-23T10:27:09;3.72;;;2.80;;
4738;SDS011;2383;48.632;10.156;2023-04-23T10:31:29;3.70;;;2.80;;
4738;SDS011;2383;48.632;10.156;2023-04-23T10:35:34;4.20;;;2.95;;
4738;SDS011;2383;48.632;10.156;2023-04-23T10:39:36;3.03;;;2.72;;
4738;SDS011;2383;48.632;10.156;2023-04-23T10:43:39;2.83;;;2.47;;
4738;SDS011;2383;48.632;10.156;2023-04-23T10:47:44;3.13;;;2.50;;
4738;SDS011;2383;48.632;10.156;2023-04-23T10:51:47;2.42;;;2.22;;
4738;SDS011;2383;48.632;10.156;2023-04-23T10:56:05;2.65;;;2.45;;
4738;SDS011;2383;48.632;10.156;2023-04-23T11:00:11;6.50;;;4.63;;
4738;SDS011;2383;48.632;10.156;2023-04-23T11:04:22;5.63;;;4.20;;
4738;SDS011;2383;48.632;10.156;2023-04-23T11:08:25;3.15;;;2.25;;
4738;SDS011;2383;48.632;10.156;2023-04-23T11:12:30;2.20;;;2.00;;
4738;SDS011;2383;48.632;10.156;2023-04-23T11:16:33;3.13;;;1.52;;
4738;SDS011;2383;48.632;10.156;2023-04-23T11:20:37;3.20;;;1.30;;
4738;SDS011;2383;48.632;10.156;2023-04-23T11:24:41;1.90;;;1.50;;
4738;SDS011;2383;48.632;10.156;2023-04-23T11:28:45;1.48;;;1.38;;
4738;SDS011;2383;48.632;10.156;2023-04-23T11:32:50;1.40;;;1.15;;
4738;SDS011;2383;48.632;10.156;2023-04-23T11:36:53;2.53;;;1.50;;
4738;SDS011;2383;48.632;10.156;2023-04-23T11:41:00;1.65;;;1.42;;
4738;SDS011;2383;48.632;10.156;2023-04-23T11:45:03;3.88;;;1.67;;
4738;SDS011;2383;48.632;10.156;2023-04-23T11:49:05;6.82;;;2.60;;
4738;SDS011;2383;48.632;10.156;2023-04-23T11:53:10;4.47;;;3.10;;
4738;SDS011;2383;48.632;10.156;2023-04-23T11:57:12;1.42;;;1.33;;
4738;SDS011;2383;48.632;10.156;2023-04-23T12:01:14;1.70;;;1.20;;
4738;SDS011;2383;48.632;10.156;2023-04-23T12:05:28;1.30;;;1.20;;
4738;SDS011;2383;48.632;10.156;2023-04-23T12:09:30;3.75;;;2.40;;
4738;SDS011;2383;48.632;10.156;2023-04-23T12:13:32;2.25;;;1.45;;
4738;SDS011;2383;48.632;10.156;2023-04-23T12:17:34;1.40;;;1.23;;
4738;SDS011;2383;48.632;10.156;2023-04-23T12:21:53;1.83;;;1.30;;
4738;SDS011;2383;48.632;10.156;2023-04-23T12:25:55;2.15;;;1.20;;
4738;SDS011;2383;48.632;10.156;2023-04-23T12:29:58;1.55;;;1.23;;
4738;SDS011;2383;48.632;10.156;2023-04-23T12:34:05;1.00;;;1.00;;
4738;SDS011;2383;48.632;10.156;2023-04-23T12:38:24;2.28;;;1.48;;
4738;SDS011;2383;48.632;10.156;2023-04-23T12:42:28;1.33;;;1.23;;
4738;SDS011;2383;48.632;10.156;2023-04-23T12:46:30;1.20;;;1.10;;
4738;SDS011;2383;48.632;10.156;2023-04-23T12:50:32;1.90;;;1.27;;
4738;SDS011;2383;48.632;10.156;2023-04-23T12:54:36;3.28;;;1.00;;
4738;SDS011;2383;48.632;10.156;2023-04-23T12:58:40;1.73;;;1.05;;
4738;SDS011;2383;48.632;10.156;2023-04-23T13:02:43;1.70;;;1.15;;
4738;SDS011;2383;48.632;10.156;2023-04-23T13:06:47;1.30;;;1.20;;
4738;SDS011;2383;48.632;10.156;2023-04-23T13:10:49;2.15;;;0.90;;
4738;SDS011;2383;48.632;10.156;2023-04-23T13:14:52;3.75;;;1.30;;
4738;SDS011;2383;48.632;10.156;2023-04-23T13:23:01;1.63;;;1.17;;
4738;SDS011;2383;48.632;10.156;2023-04-23T13:27:03;1.83;;;1.40;;
4738;SDS011;2383;48.632;10.156;2023-04-23T13:31:06;2.63;;;1.17;;
4738;SDS011;2383;48.632;10.156;2023-04-23T13:35:09;1.42;;;1.20;;
4738;SDS011;2383;48.632;10.156;2023-04-23T13:39:14;3.22;;;1.30;;
4738;SDS011;2383;48.632;10.156;2023-04-23T13:43:18;3.55;;;1.27;;
4738;SDS011;2383;48.632;10.156;2023-04-23T13:47:22;3.58;;;1.20;;
4738;SDS011;2383;48.632;10.156;2023-04-23T13:51:25;3.08;;;1.10;;
4738;SDS011;2383;48.632;10.156;2023-04-23T13:55:33;4.32;;;1.40;;
4738;SDS011;2383;48.632;10.156;2023-04-23T13:59:37;3.45;;;1.30;;
4738;SDS011;2383;48.632;10.156;2023-04-23T14:03:39;1.95;;;1.38;;
4738;SDS011;2383;48.632;10.156;2023-04-23T14:07:44;5.78;;;1.50;;
4738;SDS011;2383;48.632;10.156;2023-04-23T14:11:46;2.10;;;1.20;;
4738;SDS011;2383;48.632;10.156;2023-04-23T14:15:49;2.08;;;1.20;;
4738;SDS011;2383;48.632;10.156;2023-04-23T14:19:51;3.10;;;1.25;;
4738;SDS011;2383;48.632;10.156;2023-04-23T14:24:00;3.30;;;1.33;;
4738;SDS011;2383;48.632;10.156;2023-04-23T14:32:38;2.45;;;1.42;;
4738;SDS011;2383;48.632;10.156;2023-04-23T14:36:40;2.55;;;1.30;;
4738;SDS011;2383;48.632;10.156;2023-04-23T14:40:42;2.97;;;1.55;;
4738;SDS011;2383;48.632;10.156;2023-04-23T14:44:45;1.60;;;1.10;;
4738;SDS011;2383;48.632;10.156;2023-04-23T14:48:47;2.30;;;1.20;;
4738;SDS011;2383;48.632;10.156;2023-04-23T14:52:51;3.55;;;1.42;;
4738;SDS011;2383;48.632;10.156;2023-04-23T14:56:53;1.70;;;1.38;;
4738;SDS011;2383;48.632;10.156;2023-04-23T15:00:55;4.32;;;1.25;;
4738;SDS011;2383;48.632;10.156;2023-04-23T15:04:58;3.78;;;1.10;;
4738;SDS011;2383;48.632;10.156;2023-04-23T15:09:00;3.65;;;1.40;;
4738;SDS011;2383;48.632;10.156;2023-04-23T15:17:04;5.72;;;1.08;;
4738;SDS011;2383;48.632;10.156;2023-04-23T15:21:06;2.50;;;1.23;;
4738;SDS011;2383;48.632;10.156;2023-04-23T15:25:09;2.92;;;1.48;;
4738;SDS011;2383;48.632;10.156;2023-04-23T15:29:11;1.30;;;1.20;;
4738;SDS011;2383;48.632;10.156;2023-04-23T15:33:14;4.57;;;1.42;;
4738;SDS011;2383;48.632;10.156;2023-04-23T15:37:18;2.50;;;1.48;;
4738;SDS011;2383;48.632;10.156;2023-04-23T15:41:21;2.25;;;1.40;;
4738;SDS011;2383;48.632;10.156;2023-04-23T15:45:23;4.13;;;1.50;;
4738;SDS011;2383;48.632;10.156;2023-04-23T15:49:25;3.10;;;1.38;;
4738;SDS011;2383;48.632;10.156;2023-04-23T15:53:28;2.13;;;1.17;;
4738;SDS011;2383;48.632;10.156;2023-04-23T15:57:30;1.73;;;1.17;;
4738;SDS011;2383;48.632;10.156;2023-04-23T16:01:32;3.15;;;1.67;;
4738;SDS011;2383;48.632;10.156;2023-04-23T16:05:35;5.72;;;2.13;;
4738;SDS011;2383;48.632;10.156;2023-04-23T16:09:39;2.45;;;1.45;;
4738;SDS011;2383;48.632;10.156;2023-04-23T16:13:41;2.50;;;1.45;;
4738;SDS011;2383;48.632;10.156;2023-04-23T16:17:43;4.40;;;1.70;;
4738;SDS011;2383;48.632;10.156;2023-04-23T16:21:47;3.70;;;1.52;;
4738;SDS011;2383;48.632;10.156;2023-04-23T16:25:49;3.58;;;1.50;;
4738;SDS011;2383;48.632;10.156;2023-04-23T16:29:52;1.38;;;1.20;;
4738;SDS011;2383;48.632;10.156;2023-04-23T16:33:54;3.15;;;1.38;;
4738;SDS011;2383;48.632;10.156;2023-04-23T16:37:56;3.97;;;1.30;;
4738;SDS011;2383;48.632;10.156;2023-04-23T16:41:59;2.03;;;1.33;;
4738;SDS011;2383;48.632;10.156;2023-04-23T16:46:01;2.75;;;1.20;;
4738;SDS011;2383;48.632;10.156;2023-04-23T16:50:03;2.63;;;1.30;;
4738;SDS011;2383;48.632;10.156;2023-04-23T16:54:06;3.03;;;1.50;;
4738;SDS011;2383;48.632;10.156;2023-04-23T16:58:08;2.35;;;1.23;;
4738;SDS011;2383;48.632;10.156;2023-04-23T17:02:10;4.55;;;1.55;;
4738;SDS011;2383;48.632;10.156;2023-04-23T17:06:23;2.08;;;1.35;;
4738;SDS011;2383;48.632;10.156;2023-04-23T17:10:26;3.28;;;1.60;;
4738;SDS011;2383;48.632;10.156;2023-04-23T17:14:28;2.88;;;1.50;;
4738;SDS011;2383;48.632;10.156;2023-04-23T17:18:31;3.65;;;1.70;;
4738;SDS011;2383;48.632;10.156;2023-04-23T17:22:33;5.72;;;2.40;;
4738;SDS011;2383;48.632;10.156;2023-04-23T17:26:35;2.17;;;1.70;;
4738;SDS011;2383;48.632;10.156;2023-04-23T17:30:40;2.78;;;1.08;;
4738;SDS011;2383;48.632;10.156;2023-04-23T17:34:42;1.30;;;0.80;;
4738;SDS011;2383;48.632;10.156;2023-04-23T17:38:45;2.35;;;1.25;;
4738;SDS011;2383;48.632;10.156;2023-04-23T17:42:47;2.25;;;0.95;;
4738;SDS011;2383;48.632;10.156;2023-04-23T17:46:49;3.35;;;1.30;;
4738;SDS011;2383;48.632;10.156;2023-04-23T17:50:53;1.70;;;1.08;;
4738;SDS011;2383;48.632;10.156;2023-04-23T17:54:56;4.43;;;1.30;;
4738;SDS011;2383;48.632;10.156;2023-04-23T17:58:58;1.85;;;1.02;;
4738;SDS011;2383;48.632;10.156;2023-04-23T18:03:00;4.32;;;1.13;;
4738;SDS011;2383;48.632;10.156;2023-04-23T18:07:03;1.73;;;1.10;;
4738;SDS011;2383;48.632;10.156;2023-04-23T18:11:05;3.30;;;1.50;;
4738;SDS011;2383;48.632;10.156;2023-04-23T18:15:08;3.45;;;1.70;;
4738;SDS011;2383;48.632;10.156;2023-04-23T18:19:12;3.35;;;1.70;;
4738;SDS011;2383;48.632;10.156;2023-04-23T18:23:15;4.57;;;1.60;;
4738;SDS011;2383;48.632;10.156;2023-04-23T18:27:18;5.72;;;2.22;;
4738;SDS011;2383;48.632;10.156;2023-04-23T18:31:20;2.08;;;1.40;;
4738;SDS011;2383;48.632;10.156;2023-04-23T18:35:23;2.33;;;1.48;;
4738;SDS011;2383;48.632;10.156;2023-04-23T18:39:26;1.98;;;1.50;;
4738;SDS011;2383;48.632;10.156;2023-04-23T18:43:32;3.25;;;1.60;;
4738;SDS011;2383;48.632;10.156;2023-04-23T18:47:41;1.92;;;1.60;;
4738;SDS011;2383;48.632;10.156;2023-04-23T18:51:49;3.75;;;2.10;;
4738;SDS011;2383;48.632;10.156;2023-04-23T18:55:52;3.03;;;1.73;;
4738;SDS011;2383;48.632;10.156;2023-04-23T18:59:54;3.03;;;1.70;;
4738;SDS011;2383;48.632;10.156;2023-04-23T19:03:56;2.95;;;2.20;;
4738;SDS011;2383;48.632;10.156;2023-04-23T19:07:59;2.95;;;1.90;;
4738;SDS011;2383;48.632;10.156;2023-04-23T19:12:03;3.45;;;2.10;;
4738;SDS011;2383;48.632;10.156;2023-04-23T19:16:06;3.38;;;1.63;;
4738;SDS011;2383;48.632;10.156;2023-04-23T19:20:10;2.13;;;1.35;;
4738;SDS011;2383;48.632;10.156;2023-04-23T19:24:17;3.97;;;1.58;;
4738;SDS011;2383;48.632;10.156;2023-04-23T19:28:19;4.13;;;1.63;;
4738;SDS011;2383;48.632;10.156;2023-04-23T19:32:21;4.28;;;1.92;;
4738;SDS011;2383;48.632;10.156;2023-04-23T19:36:24;4.13;;;1.63;;
4738;SDS011;2383;48.632;10.156;2023-04-23T19:40:26;1.70;;;1.40;;
4738;SDS011;2383;48.632;10.156;2023-04-23T19:44:29;3.10;;;1.70;;
4738;SDS011;2383;48.632;10.156;2023-04-23T19:48:31;2.15;;;1.55;;
4738;SDS011;2383;48.632;10.156;2023-04-23T19:52:34;6.22;;;2.40;;
4738;SDS011;2383;48.632;10.156;2023-04-23T19:56:36;4.80;;;3.35;;
4738;SDS011;2383;48.632;10.156;2023-04-23T20:00:38;3.05;;;1.80;;
4738;SDS011;2383;48.632;10.156;2023-04-23T20:04:42;2.97;;;1.80;;
4738;SDS011;2383;48.632;10.156;2023-04-23T20:08:46;2.00;;;1.40;;
4738;SDS011;2383;48.632;10.156;2023-04-23T20:13:06;1.55;;;1.20;;
4738;SDS011;2383;48.632;10.156;2023-04-23T20:17:08;3.08;;;1.35;;
4738;SDS011;2383;48.632;10.156;2023-04-23T20:21:10;2.15;;;1.42;;
4738;SDS011;2383;48.632;10.156;2023-04-23T20:25:13;2.80;;;1.50;;
4738;SDS011;2383;48.632;10.156;2023-04-23T20:29:15;1.58;;;1.30;;
4738;SDS011;2383;48.632;10.156;2023-04-23T20:33:17;3.75;;;1.48;;
4738;SDS011;2383;48.632;10.156;2023-04-23T20:37:20;1.92;;;1.20;;
4738;SDS011;2383;48.632;10.156;2023-04-23T20:41:23;2.22;;;1.17;;
4738;SDS011;2383;48.632;10.156;2023-04-23T20:45:31;1.88;;;1.60;;
4738;SDS011;2383;48.632;10.156;2023-04-23T20:49:35;2.67;;;1.65;;
4738;SDS011;2383;48.632;10.156;2023-04-23T20:53:37;1.98;;;1.77;;
4738;SDS011;2383;48.632;10.156;2023-04-23T20:57:39;3.13;;;2.13;;
4738;SDS011;2383;48.632;10.156;2023-04-23T21:01:41;3.92;;;1.75;;
4738;SDS011;2383;48.632;10.156;2023-04-23T21:05:44;3.72;;;2.08;;
4738;SDS011;2383;48.632;10.156;2023-04-23T21:09:46;3.35;;;2.13;;
4738;SDS011;2383;48.632;10.156;2023-04-23T21:13:48;5.47;;;3.60;;
4738;SDS011;2383;48.632;10.156;2023-04-23T21:17:50;4.03;;;3.50;;
4738;SDS011;2383;48.632;10.156;2023-04-23T21:21:52;2.75;;;2.10;;
4738;SDS011;2383;48.632;10.156;2023-04-23T21:25:54;3.08;;;2.40;;
4738;SDS011;2383;48.632;10.156;2023-04-23T21:30:04;3.78;;;1.95;;
4738;SDS011;2383;48.632;10.156;2023-04-23T21:34:09;3.05;;;2.50;;
4738;SDS011;2383;48.632;10.156;2023-04-23T21:38:11;3.63;;;2.40;;
4738;SDS011;2383;48.632;10.156;2023-04-23T21:42:13;2.05;;;1.85;;
4738;SDS011;2383;48.632;10.156;2023-04-23T21:46:15;1.75;;;1.30;;
4738;SDS011;2383;48.632;10.156;2023-04-23T21:50:17;2.58;;;1.33;;
4738;SDS011;2383;48.632;10.156;2023-04-23T21:54:20;1.00;;;1.00;;
4738;SDS011;2383;48.632;10.156;2023-04-23T21:58:22;2.63;;;1.13;;
4738;SDS011;2383;48.632;10.156;2023-04-23T22:02:24;1.00;;;0.90;;
4738;SDS011;2383;48.632;10.156;2023-04-23T22:06:27;1.10;;;1.00;;
4738;SDS011;2383;48.632;10.156;2023-04-23T22:10:30;1.10;;;1.00;;
4738;SDS011;2383;48.632;10.156;2023-04-23T22:14:32;5.07;;;1.23;;
4738;SDS011;2383;48.632;10.156;2023-04-23T22:18:35;3.05;;;0.88;;
4738;SDS011;2383;48.632;10.156;2023-04-23T22:22:37;2.38;;;0.90;;
4738;SDS011;2383;48.632;10.156;2023-04-23T22:26:41;1.23;;;0.80;;
4738;SDS011;2383;48.632;10.156;2023-04-23T22:30:43;0.90;;;0.90;;
4738;SDS011;2383;48.632;10.156;2023-04-23T22:34:45;2.70;;;1.10;;
4738;SDS011;2383;48.632;10.156;2023-04-23T22:38:47;1.48;;;1.10;;
4738;SDS011;2383;48.632;10.156;2023-04-23T22:42:49;2.40;;;1.58;;
4738;SDS011;2383;48.632;10.156;2023-04-23T22:46:51;1.88;;;1.20;;
4738;SDS011;2383;48.632;10.156;2023-04-23T22:50:53;2.25;;;1.10;;
4738;SDS011;2383;48.632;10.156;2023-04-23T22:54:56;1.40;;;1.05;;
4738;SDS011;2383;48.632;10.156;2023-04-23T22:58:58;1.10;;;0.82;;
4738;SDS011;2383;48.632;10.156;2023-04-23T23:03:00;1.60;;;0.90;;
4738;SDS011;2383;48.632;10.156;2023-04-23T23:07:03;1.73;;;1.27;;
4738;SDS011;2383;48.632;10.156;2023-04-23T23:11:06;2.10;;;1.10;;
4738;SDS011;2383;48.632;10.156;2023-04-23T23:15:08;1.40;;;1.30;;
4738;SDS011;2383;48.632;10.156;2023-04-23T23:19:10;1.52;;;1.30;;
4738;SDS011;2383;48.632;10.156;2023-04-23T23:23:13;1.20;;;1.10;;
4738;SDS011;2383;48.632;10.156;2023-04-23T23:27:15;1.95;;;1.00;;
4738;SDS011;2383;48.632;10.156;2023-04-23T23:31:17;1.17;;;1.08;;
4738;SDS011;2383;48.632;10.156;2023-04-23T23:35:20;1.90;;;1.00;;
4738;SDS011;2383;48.632;10.156;2023-04-23T23:39:22;1.08;;;0.95;;
4738;SDS011;2383;48.632;10.156;2023-04-23T23:43:24;1.25;;;1.15;;
4738;SDS011;2383;48.632;10.156;2023-04-23T23:47:26;1.13;;;1.02;;
4738;SDS011;2383;48.632;10.156;2023-04-23T23:51:28;2.33;;;1.10;;
4738;SDS011;2383;48.632;10.156;2023-04-23T23:55:31;0.90;;;0.90;;
4738;SDS011;2383;48.632;10.156;2023-04-23T23:59:33;1.30;;;1.20;;
